Aérodrome :
LOGIN :

S'inscrire | Disclaimer

   EN    FR    IT 

 










Légende :    VFR   VFR Marginal   IFR   IFR Intensif   IFR Très Intensif
Visi : 
Plafond : 
>= 8 km
>= 3000ft
5 à 8 km
1000 à 3000 ft
1500m à 5 km
500 à 1000 ft
800 à 1500m
200 à 500 ft
< 800m
< 200 ft
Symboles :   Orages  Brouillard  Fortes neiges  Fortes précipitations  Vent > 20 kt
SIGMETs :   Divers  Orages  Givrage  Turbulence  Onde Orograph.  Cendres Volcan.






- Altitude de l'aérodrome : 37 ft


EHVL - Vlieland Heliport

DERNIER METAR :
  • 021955Z AUTO 28012KT 7000 BR FEW063 SCT075 BKN080 08/07 Q1009 WHT

METARs EXPIRÉS :
  • 021937Z AUTO 28014KT 7000 BR SCT060 BKN065 OVC075 08/07 Q1009 WHT
  • 021925Z AUTO 28015KT 8000 BR FEW055 BKN073 OVC078 08/07 Q1009 BLU
  • 021855Z AUTO 27017KT 9000 BR FEW017 OVC045 08/07 Q1008 BLU
  • 021847Z AUTO 27018KT 9000 BR FEW013 BKN042 OVC047 08/07 Q1008 BLU
  • 021845Z AUTO 26019KT 8000 BR FEW013 SCT015 BKN042 08/07 Q1008 WHT
  • 021835Z AUTO 26017KT 8000 BR FEW014 SCT017 BKN048 08/07 Q1008 WHT
  • 021825Z AUTO 26016KT 8000 BR SCT066 OVC071 08/07 Q1008 BLU
  • 021756Z AUTO 25018KT 8000 BR SCT059 OVC065 08/06 Q1008 BLU
  • 021755Z AUTO 25019KT 7000 BR SCT055 OVC061 08/06 Q1008 WHT
  • 021743Z AUTO 25020KT 7000 BR FEW031 BKN050 BKN057 08/06 Q1008 WHT
  • 021725Z AUTO 25021KT 6000 BR FEW031 SCT045 BKN050 08/06 Q1008 WHT
  • 021704Z AUTO 25020KT 7000 BR SCT027 BKN032 BKN040 08/06 Q1008 WHT

Prévision TAF périmée.



MET'MAP, la Météo Aéronautique d'un coup d'oeil ! - Copyright ORBIFLY Décembre 2007 - Disclaimer

ORBIFLY MET'MAP TEAM :

Programmation & Développement : Alexandra Zaïnal
Sur une idée originale de : Baudouin d'Aumeries
Assistance à la programmation : Marc-Olivier Méhu
Soutien technique & logistique : Manuel Goepfert

Contact : metmap@orbifly.com




SOURCES & CREDITS :

   NOAA